Gamble Field

CA-0447 · 安大略, 加拿大

罗盘
风向 的 风向 300°
风: 13 kt, 4 beaufort

添加一条跑道以查看侧风和逆风信息。

添置 跑道
0 ft 6.000 12.000 18.000 24.000 30.000
Cloud Cloud
FEW 5.500
Cloud Cloud
FEW 14.000
Cloud Cloud Cloud Cloud
SCT 18.000
Cloud Cloud Cloud Cloud Cloud Cloud
BKN 25.000
METAR CYHM 232000Z 30013KT 15SM FEW055 FEW140 SCT180 BKN250 07/M00 A2951 RMK CU1AC1AS2CI3 CU TR SLP003

METAR Gamble Field - CA-0447

Gamble Field是,加拿大中的小机场。 该机场位于纬度43,35768和经度-79,98307。 这个机场没有ICAO代码,我们使用CA-0447作为参考。 机场在Toronto FIR中。

该航空气象观测是针对John C. Munro Hamilton International Airport在2024年2月23日 15:00, 当地时间进行的。

机场观察

风向为300°,速度为13 kt。

可见度为15 mi。

有几云在5.500 ft的高度, 几云在14.000 ft的高度, 疏云,零星散落的云朵在18.000 ft的高度 和 碎云在25.000 ft的高度。 破损或更高的上限为25.000 ft。

温度为7 °C,阵风为2 °C。 海平面上的气压为29,51 inHg (QNH)。

白天

今天,太阳从07:06升起,在18:00降落。 这适用于Gamble Field,世界夏令时可能有所不同。 当地时间与世界标准时间之间的时差为-5 小时。 当前,没有夏令时有效。

公司介绍

我们没有关于这个机场的公司信息。

体会

到Vliegles.nl去找飞行课程,跳伞和其他飞行体验。 浏览页面,了解Gamble Field附近所有可用的活动。 你也可以使用搜索功能来寻找你所在地附近的特定飞行课程、跳伞或其他飞行体验。

乌云

5.500 ft FEW 几云
14.000 ft FEW 几云
18.000 ft SCT 疏云,零星散落的云朵
25.000 ft BKN 碎云

温度 & 天气

温度 7 °C
露点 0 °C
相对湿度 61%
风寒 2 °C
Kp-index 0 (0-9)

评论

SLP003海平面压力为29,54 inHg (29,54 inHg)
CU1AC1AS2CI3 CU TR

白天

日出
07:05
中午
12:33
日落
18:00 (2:39)

小工具

你想在你的网站上有一个关于Gamble Field的当前航空天气(METAR)的小部件吗?

显示HTML代码
?>